createdAt,value
2017-11-23T00:00:45.958Z,2.60
2017-11-23T00:03:12.261Z,2.92
2017-11-23T00:05:38.687Z,2.95
2017-11-23T00:08:05.086Z,3.00
2017-11-23T00:10:31.216Z,2.92
2017-11-23T00:12:57.611Z,2.45
2017-11-23T00:15:23.738Z,2.65
2017-11-23T00:17:49.906Z,2.45
2017-11-23T00:20:17.022Z,3.00
2017-11-23T00:22:43.136Z,3.00
2017-11-23T00:25:09.241Z,3.05
2017-11-23T00:27:35.473Z,2.83
2017-11-23T00:30:02.380Z,2.80
2017-11-23T00:32:28.503Z,2.87
2017-11-23T00:34:54.803Z,2.85
2017-11-23T00:37:20.999Z,2.58
2017-11-23T00:39:47.142Z,3.10
2017-11-23T00:42:13.482Z,2.65
2017-11-23T00:44:40.560Z,2.60
2017-11-23T00:47:06.682Z,2.80
2017-11-23T00:49:33.013Z,3.15
2017-11-23T00:52:00.133Z,2.90
2017-11-23T00:54:26.258Z,3.65
2017-11-23T00:56:56.740Z,3.12
2017-11-23T00:59:23.100Z,3.70
2017-11-23T01:01:50.225Z,3.10
2017-11-23T01:04:36.693Z,3.45
2017-11-23T01:07:05.098Z,3.20
2017-11-23T01:09:32.037Z,3.20
2017-11-23T01:11:58.197Z,3.50
2017-11-23T01:14:24.326Z,3.42
2017-11-23T01:16:51.194Z,3.45
2017-11-23T01:19:17.336Z,3.10
2017-11-23T01:21:43.438Z,3.60
2017-11-23T01:24:09.549Z,3.42
2017-11-23T01:26:35.722Z,3.15
2017-11-23T01:29:02.148Z,3.50
2017-11-23T01:31:28.356Z,3.30
2017-11-23T01:33:54.485Z,3.22
2017-11-23T01:36:20.683Z,3.22
2017-11-23T01:38:46.833Z,3.83
2017-11-23T01:41:13.703Z,4.00
2017-11-23T01:43:39.840Z,3.85
2017-11-23T01:46:05.982Z,4.10
2017-11-23T01:48:32.186Z,3.83
2017-11-23T01:50:58.327Z,3.28
2017-11-23T01:53:24.480Z,3.70
2017-11-23T01:55:51.373Z,3.45
2017-11-23T01:58:17.606Z,3.37
2017-11-23T02:00:43.756Z,3.33
2017-11-23T02:03:09.899Z,4.03
2017-11-23T02:05:36.295Z,3.80
2017-11-23T02:08:02.452Z,3.70
2017-11-23T02:10:29.364Z,3.53
2017-11-23T02:12:55.514Z,3.40
2017-11-23T02:15:21.660Z,3.15
2017-11-23T02:17:47.838Z,3.58
2017-11-23T02:20:14.030Z,3.90
2017-11-23T02:22:40.448Z,4.28
2017-11-23T02:25:06.611Z,3.45
2017-11-23T02:27:32.782Z,4.20
2017-11-23T02:29:59.744Z,3.67
2017-11-23T02:32:26.658Z,3.10
2017-11-23T02:34:52.808Z,3.67
2017-11-23T02:37:26.202Z,3.50
2017-11-23T02:39:52.642Z,3.62
2017-11-23T02:42:18.803Z,3.87
2017-11-23T02:44:44.971Z,3.78
2017-11-23T02:47:26.376Z,3.70
2017-11-23T02:49:53.262Z,3.35
2017-11-23T02:52:19.407Z,3.75
2017-11-23T02:54:45.722Z,3.65
2017-11-23T02:57:27.883Z,3.83
2017-11-23T02:59:54.017Z,3.40
2017-11-23T03:02:20.313Z,3.45
2017-11-23T03:04:46.467Z,3.60
2017-11-23T03:07:13.371Z,3.80
2017-11-23T03:09:39.534Z,3.45
2017-11-23T03:12:05.680Z,3.67
2017-11-23T03:14:31.881Z,3.40
2017-11-23T03:16:58.214Z,3.40
2017-11-23T03:19:24.725Z,3.80
2017-11-23T03:21:50.847Z,3.10
2017-11-23T03:24:16.981Z,4.05
2017-11-23T03:26:43.122Z,3.75
2017-11-23T03:29:09.292Z,2.90
2017-11-23T03:31:35.450Z,3.60
2017-11-23T03:34:02.316Z,3.28
2017-11-23T03:36:29.245Z,3.37
2017-11-23T03:39:15.477Z,3.53
2017-11-23T03:41:47.091Z,4.15
2017-11-23T03:44:13.433Z,3.72
2017-11-23T03:46:39.860Z,3.70
2017-11-23T03:49:06.945Z,4.15
2017-11-23T03:51:33.317Z,3.50
2017-11-23T03:53:59.682Z,3.92
2017-11-23T03:56:26.049Z,4.10
2017-11-23T03:58:56.257Z,4.47
2017-11-23T04:01:24.230Z,4.62
2017-11-23T04:03:50.622Z,3.85
2017-11-23T04:06:17.705Z,4.25
2017-11-23T04:08:45.364Z,3.80
2017-11-23T04:11:11.720Z,4.55
2017-11-23T04:13:38.105Z,4.70
2017-11-23T04:16:05.337Z,4.57
2017-11-23T04:18:32.420Z,3.95
2017-11-23T04:20:58.773Z,3.85
2017-11-23T04:23:25.160Z,5.22
2017-11-23T04:25:52.169Z,4.55
2017-11-23T04:28:24.183Z,4.07
2017-11-23T04:30:50.524Z,4.47
2017-11-23T04:33:16.857Z,4.20
2017-11-23T04:35:43.697Z,4.78
2017-11-23T04:38:10.057Z,4.70
2017-11-23T04:40:36.495Z,4.70
2017-11-23T04:43:02.833Z,4.93
2017-11-23T04:45:29.265Z,5.00
2017-11-23T04:47:55.610Z,5.00
2017-11-23T04:50:21.947Z,4.65
2017-11-23T04:52:56.810Z,4.30
2017-11-23T04:55:23.149Z,4.45
2017-11-23T04:57:49.591Z,4.82
2017-11-23T05:00:15.935Z,4.93
2017-11-23T05:02:59.960Z,4.50
2017-11-23T05:05:29.733Z,5.00
2017-11-23T05:07:56.058Z,4.72
2017-11-23T05:10:22.389Z,4.25
2017-11-23T05:12:48.722Z,5.20
2017-11-23T05:15:15.524Z,5.03
2017-11-23T05:17:41.910Z,4.80
2017-11-23T05:20:08.287Z,4.90
2017-11-23T05:22:35.359Z,4.80
2017-11-23T05:25:02.534Z,4.22
2017-11-23T05:27:28.918Z,4.70
2017-11-23T05:29:55.246Z,4.72
2017-11-23T05:32:21.602Z,4.95
2017-11-23T05:34:47.921Z,4.62
2017-11-23T05:37:14.267Z,4.45
2017-11-23T05:39:40.615Z,4.87
2017-11-23T05:42:06.961Z,5.75
2017-11-23T05:44:33.412Z,5.10
2017-11-23T05:46:59.772Z,4.80
2017-11-23T05:49:26.129Z,4.53
2017-11-23T05:51:52.506Z,4.70
2017-11-23T05:54:18.946Z,5.15
2017-11-23T05:56:45.320Z,5.40
2017-11-23T05:59:11.646Z,4.97
2017-11-23T06:01:39.120Z,4.60
2017-11-23T06:04:05.495Z,5.10
2017-11-23T06:06:31.838Z,4.10
2017-11-23T06:08:59.853Z,4.22
2017-11-23T06:11:26.336Z,4.37
2017-11-23T06:13:53.439Z,4.53
2017-11-23T06:16:19.762Z,5.55
2017-11-23T06:18:46.850Z,4.95
2017-11-23T06:21:13.173Z,5.20
2017-11-23T06:23:39.512Z,4.80
2017-11-23T06:26:06.586Z,4.87
2017-11-23T06:28:33.645Z,5.40
2017-11-23T06:31:00.750Z,4.97
2017-11-23T06:33:48.061Z,4.85
2017-11-23T06:36:20.003Z,4.75
2017-11-23T06:38:55.898Z,5.00
2017-11-23T06:41:22.969Z,4.90
2017-11-23T06:43:50.073Z,4.65
2017-11-23T06:46:16.427Z,4.55
2017-11-23T06:48:42.827Z,4.70
2017-11-23T06:51:09.150Z,4.53
2017-11-23T06:53:35.481Z,5.00
2017-11-23T06:56:01.919Z,5.20
2017-11-23T06:58:28.974Z,4.87
2017-11-23T07:00:56.686Z,4.70
2017-11-23T07:03:23.075Z,5.22
2017-11-23T07:05:49.419Z,4.93
2017-11-23T07:08:15.734Z,4.75
2017-11-23T07:10:42.094Z,5.37
2017-11-23T07:13:08.429Z,4.95
2017-11-23T07:15:35.778Z,5.20
2017-11-23T07:18:02.920Z,4.53
2017-11-23T07:20:29.991Z,4.85
2017-11-23T07:22:56.342Z,4.32
2017-11-23T07:25:22.528Z,4.80
2017-11-23T07:27:48.870Z,4.53
2017-11-23T07:30:15.198Z,4.82
2017-11-23T07:32:41.380Z,5.15
2017-11-23T07:35:07.795Z,4.78
2017-11-23T07:37:34.208Z,4.65
2017-11-23T07:40:00.318Z,4.90
2017-11-23T07:42:26.693Z,4.78
2017-11-23T07:44:53.070Z,4.55
2017-11-23T07:47:19.385Z,4.50
2017-11-23T07:49:45.713Z,4.93
2017-11-23T07:52:12.042Z,4.80
2017-11-23T07:54:39.192Z,4.53
2017-11-23T07:57:06.420Z,4.32
2017-11-23T07:59:32.835Z,4.22
2017-11-23T08:02:00.722Z,4.20
2017-11-23T08:04:26.911Z,4.65
2017-11-23T08:06:53.056Z,4.95
2017-11-23T08:09:19.220Z,4.45
2017-11-23T08:11:45.591Z,4.57
2017-11-23T08:14:12.773Z,4.10
2017-11-23T08:16:38.889Z,4.72
2017-11-23T08:19:05.058Z,4.25
2017-11-23T08:21:31.230Z,4.00
2017-11-23T08:24:01.871Z,4.00
2017-11-23T08:26:29.200Z,4.17
2017-11-23T08:28:56.093Z,3.95
2017-11-23T08:31:22.965Z,4.72
2017-11-23T08:33:49.830Z,4.77
2017-11-23T08:36:16.440Z,4.60
2017-11-23T08:38:42.614Z,4.50
2017-11-23T08:41:08.793Z,3.83
2017-11-23T08:43:35.056Z,4.50
2017-11-23T08:46:01.270Z,4.33
2017-11-23T08:48:27.383Z,4.70
2017-11-23T08:50:53.518Z,4.17
2017-11-23T08:53:19.853Z,4.33
2017-11-23T08:55:49.008Z,4.37
2017-11-23T08:58:15.148Z,5.07
2017-11-23T09:00:41.302Z,4.03
2017-11-23T09:03:08.304Z,4.07
2017-11-23T09:05:42.854Z,4.30
2017-11-23T09:08:10.978Z,4.10
2017-11-23T09:10:37.110Z,4.00
2017-11-23T09:13:03.405Z,4.37
2017-11-23T09:15:32.564Z,4.25
2017-11-23T09:17:58.731Z,4.37
2017-11-23T09:20:31.439Z,4.13
2017-11-23T09:22:57.694Z,3.53
2017-11-23T09:25:23.821Z,4.60
2017-11-23T09:27:49.994Z,4.17
2017-11-23T09:30:16.111Z,4.10
2017-11-23T09:32:42.979Z,4.20
2017-11-23T09:35:16.206Z,4.00
2017-11-23T09:37:42.345Z,4.20
2017-11-23T09:40:08.506Z,3.83
2017-11-23T09:42:34.645Z,3.67
2017-11-23T09:45:00.843Z,3.83
2017-11-23T09:47:27.144Z,3.47
2017-11-23T09:50:00.609Z,3.90
2017-11-23T09:52:26.773Z,4.10
2017-11-23T09:54:52.920Z,4.60
2017-11-23T09:57:19.061Z,3.75
2017-11-23T09:59:45.194Z,3.63
2017-11-23T10:02:12.053Z,3.60
2017-11-23T10:04:38.918Z,3.55
2017-11-23T10:07:08.467Z,3.70
2017-11-23T10:09:34.612Z,3.80
2017-11-23T10:12:00.761Z,3.70
2017-11-23T10:14:32.994Z,3.83
2017-11-23T10:16:59.151Z,3.83
2017-11-23T10:19:25.274Z,3.73
2017-11-23T10:21:53.844Z,3.90
2017-11-23T10:24:19.965Z,3.90
2017-11-23T10:26:46.818Z,3.80
2017-11-23T10:29:13.018Z,4.07
2017-11-23T10:31:39.124Z,3.80
2017-11-23T10:34:05.271Z,3.47
2017-11-23T10:36:31.397Z,3.70
2017-11-23T10:39:00.965Z,4.07
2017-11-23T10:41:27.090Z,4.13
2017-11-23T10:43:53.221Z,3.70
2017-11-23T10:46:20.117Z,3.67
2017-11-23T10:48:46.243Z,3.33
2017-11-23T10:51:13.129Z,3.83
2017-11-23T10:53:39.990Z,3.60
2017-11-23T10:56:10.396Z,3.40
2017-11-23T10:58:36.528Z,3.50
2017-11-23T11:01:02.696Z,3.70
2017-11-23T11:03:28.898Z,4.03
2017-11-23T11:05:55.063Z,3.77
2017-11-23T11:08:21.178Z,3.70
2017-11-23T11:10:47.345Z,3.50
2017-11-23T11:13:19.430Z,3.77
2017-11-23T11:15:45.577Z,3.23
2017-11-23T11:18:11.751Z,3.30
2017-11-23T11:20:37.873Z,4.17
2017-11-23T11:23:04.733Z,3.60
2017-11-23T11:25:31.697Z,3.43
2017-11-23T11:28:01.914Z,4.00
2017-11-23T11:30:28.066Z,3.55
2017-11-23T11:32:54.264Z,3.77
2017-11-23T11:35:20.385Z,3.30
2017-11-23T11:37:46.546Z,3.33
2017-11-23T11:40:13.489Z,3.12
2017-11-23T11:42:40.382Z,3.50
2017-11-23T11:45:06.558Z,3.80
2017-11-23T11:47:35.844Z,4.00
2017-11-23T11:50:02.770Z,3.70
2017-11-23T11:52:28.912Z,3.67
2017-11-23T11:54:55.054Z,3.72
2017-11-23T11:57:21.185Z,3.67
2017-11-23T11:59:48.049Z,3.53
2017-11-23T12:02:19.678Z,3.63
2017-11-23T12:04:45.832Z,3.70
2017-11-23T12:07:11.953Z,3.63
2017-11-23T12:09:38.842Z,3.70
2017-11-23T12:12:05.009Z,3.70
2017-11-23T12:14:31.168Z,4.20
2017-11-23T12:30:28.736Z,3.20
2017-11-23T12:32:54.855Z,3.80
2017-11-23T12:35:20.981Z,3.53
2017-11-23T12:37:47.817Z,3.60
2017-11-23T12:40:17.454Z,3.83
2017-11-23T12:42:43.615Z,3.90
2017-11-23T12:45:09.789Z,3.67
2017-11-23T12:47:35.886Z,3.30
2017-11-23T12:50:02.028Z,3.87
2017-11-23T12:52:29.052Z,4.30
2017-11-23T12:54:55.174Z,3.10
2017-11-23T12:57:22.064Z,4.07
2017-11-23T12:59:52.931Z,3.20
2017-11-23T13:02:19.047Z,3.20
2017-11-23T13:04:45.180Z,3.97
2017-11-23T13:07:11.285Z,3.47
2017-11-23T13:09:38.133Z,3.50
2017-11-23T13:12:04.898Z,3.40
2017-11-23T13:14:31.017Z,3.70
2017-11-23T13:17:02.623Z,3.20
2017-11-23T13:19:28.730Z,2.73
2017-11-23T13:21:55.687Z,3.20
2017-11-23T13:24:21.786Z,2.90
2017-11-23T13:26:47.906Z,2.90
2017-11-23T13:29:14.614Z,3.03
2017-11-23T13:31:40.775Z,3.47
2017-11-23T13:34:06.972Z,2.53
2017-11-23T13:36:33.085Z,2.73
2017-11-23T13:38:59.945Z,2.70
2017-11-23T13:41:26.103Z,3.03
2017-11-23T13:43:52.254Z,3.20
2017-11-23T13:46:19.085Z,3.33
2017-11-23T13:48:45.213Z,2.73
2017-11-23T13:51:11.626Z,2.90
2017-11-23T13:53:38.008Z,3.00
2017-11-23T13:56:04.350Z,2.60
2017-11-23T13:58:30.732Z,2.50
2017-11-23T14:00:59.744Z,2.33
2017-11-23T14:03:32.168Z,2.63
2017-11-23T14:05:58.515Z,2.67
2017-11-23T14:08:24.954Z,2.40
2017-11-23T14:10:51.489Z,2.53
2017-11-23T14:13:17.875Z,2.60
2017-11-23T14:15:44.942Z,2.80
2017-11-23T14:18:11.256Z,2.33
2017-11-23T14:20:37.588Z,2.37
2017-11-23T14:23:04.337Z,3.07
2017-11-23T14:25:30.617Z,2.37
2017-11-23T14:27:57.011Z,2.20
2017-11-23T14:30:23.315Z,2.37
2017-11-23T14:32:49.643Z,2.23
2017-11-23T14:35:15.978Z,2.73
2017-11-23T14:37:42.329Z,2.40
2017-11-23T14:40:08.656Z,2.60
2017-11-23T14:42:34.995Z,2.40
2017-11-23T14:45:01.469Z,2.80
2017-11-23T14:47:27.819Z,2.53
2017-11-23T14:49:54.306Z,2.70
2017-11-23T14:52:20.654Z,2.70
2017-11-23T14:54:47.711Z,2.57
2017-11-23T14:57:14.825Z,2.20
2017-11-23T14:59:41.176Z,2.63
2017-11-23T15:02:07.508Z,2.43
2017-11-23T15:04:33.838Z,2.40
2017-11-23T15:07:00.152Z,2.30
2017-11-23T15:09:27.262Z,3.03
2017-11-23T15:11:53.594Z,3.07
2017-11-23T15:14:20.003Z,2.30
2017-11-23T15:16:46.449Z,2.20
2017-11-23T15:19:12.861Z,2.57
2017-11-23T15:21:39.234Z,2.20
2017-11-23T15:24:05.578Z,2.57
2017-11-23T15:26:31.934Z,2.60
2017-11-23T15:28:58.288Z,2.60
2017-11-23T15:31:24.634Z,2.90
2017-11-23T15:33:50.958Z,2.97
2017-11-23T15:36:17.281Z,2.80
2017-11-23T15:38:44.337Z,3.07
2017-11-23T15:41:11.405Z,3.10
2017-11-23T15:43:38.457Z,3.43
2017-11-23T15:46:05.978Z,2.77
2017-11-23T15:48:32.419Z,2.93
2017-11-23T15:50:58.875Z,3.00
2017-11-23T15:53:26.217Z,2.97
2017-11-23T15:55:52.620Z,2.97
2017-11-23T15:58:19.783Z,2.90
2017-11-23T16:00:46.185Z,3.33
2017-11-23T16:03:12.662Z,2.87
2017-11-23T16:05:48.567Z,2.70
2017-11-23T16:08:20.795Z,3.00
2017-11-23T16:10:47.138Z,2.67
2017-11-23T16:13:13.568Z,2.50
2017-11-23T16:15:40.002Z,3.70
2017-11-23T16:18:07.103Z,3.50
2017-11-23T16:20:33.440Z,3.77
2017-11-23T16:23:00.566Z,3.50
2017-11-23T16:25:26.970Z,4.30
2017-11-23T16:27:53.367Z,3.97
2017-11-23T16:30:19.760Z,4.00
2017-11-23T16:32:46.141Z,4.30
2017-11-23T16:35:12.478Z,4.60
2017-11-23T16:37:55.656Z,4.93
2017-11-23T16:40:28.001Z,5.37
2017-11-23T16:42:55.284Z,4.85
2017-11-23T16:45:27.823Z,4.40
2017-11-23T16:48:00.385Z,4.00
2017-11-23T16:50:32.910Z,4.32
2017-11-23T16:53:05.523Z,4.30
2017-11-23T16:55:38.027Z,4.68
2017-11-23T16:58:04.517Z,5.30
2017-11-23T17:00:37.330Z,5.82
2017-11-23T17:03:09.953Z,5.25
2017-11-23T17:05:42.533Z,6.23
2017-11-23T17:08:20.779Z,6.28
2017-11-23T17:10:53.349Z,5.60
2017-11-23T17:13:26.717Z,6.70
2017-11-23T17:15:54.174Z,6.50
2017-11-23T17:18:32.047Z,5.97
2017-11-23T17:20:58.430Z,6.30
2017-11-23T17:23:24.836Z,7.00
2017-11-23T17:25:51.334Z,6.50
2017-11-23T17:28:17.676Z,6.93
2017-11-23T17:30:45.865Z,7.18
2017-11-23T17:33:12.232Z,6.40
2017-11-23T17:35:39.331Z,7.68
2017-11-23T17:38:06.499Z,6.73
2017-11-23T17:40:32.809Z,7.20
2017-11-23T17:42:59.119Z,7.37
2017-11-23T17:45:31.553Z,6.87
2017-11-23T17:47:58.721Z,7.50
2017-11-23T17:50:25.800Z,8.00
2017-11-23T17:52:52.859Z,9.20
2017-11-23T17:55:19.189Z,8.25
2017-11-23T17:57:45.678Z,8.60
2017-11-23T18:00:12.037Z,6.90
2017-11-23T18:02:39.163Z,7.07
2017-11-23T18:05:10.742Z,6.95
2017-11-23T18:07:37.090Z,7.18
2017-11-23T18:10:03.430Z,6.87
2017-11-23T18:12:30.858Z,10.88
2017-11-23T18:14:57.194Z,7.85
2017-11-23T18:17:24.324Z,7.00
2017-11-23T18:19:55.924Z,6.72
2017-11-23T18:22:23.371Z,6.83
2017-11-23T18:24:50.517Z,8.10
2017-11-23T18:27:16.875Z,6.00
2017-11-23T18:29:43.319Z,7.82
2017-11-23T18:32:10.432Z,7.10
2017-11-23T18:34:40.901Z,5.80
2017-11-23T18:37:08.016Z,5.00
2017-11-23T18:39:35.346Z,4.32
2017-11-23T18:42:01.734Z,3.97
2017-11-23T18:44:28.040Z,6.33
2017-11-23T18:46:54.357Z,5.45
2017-11-23T18:49:21.448Z,4.60
2017-11-23T18:54:20.730Z,5.07
2017-11-23T18:56:47.065Z,3.87
2017-11-23T18:59:13.398Z,4.15
2017-11-23T19:01:39.734Z,3.87
2017-11-23T19:04:06.075Z,3.22
2017-11-23T19:06:32.434Z,3.40
2017-11-23T19:09:01.278Z,2.65
2017-11-23T19:11:27.670Z,2.40
2017-11-23T19:13:54.079Z,2.60
2017-11-23T19:16:20.384Z,1.85
2017-11-23T19:18:46.721Z,2.33
2017-11-23T19:21:13.809Z,2.35
2017-11-23T19:23:40.230Z,2.22
2017-11-23T19:28:39.088Z,2.42
2017-11-23T19:31:05.446Z,2.10
2017-11-23T19:33:31.823Z,2.20
2017-11-23T19:35:58.183Z,1.92
2017-11-23T19:38:25.301Z,2.22
2017-11-23T19:40:51.670Z,1.70
2017-11-23T19:43:22.870Z,1.80
2017-11-23T19:45:49.218Z,1.98
2017-11-23T19:48:15.549Z,2.10
2017-11-23T19:50:42.023Z,2.80
2017-11-23T19:53:08.357Z,2.08
2017-11-23T19:55:35.453Z,2.10
2017-11-23T19:58:01.987Z,2.03
2017-11-23T20:00:34.957Z,2.37
2017-11-23T20:03:01.290Z,3.03
2017-11-23T20:05:27.651Z,4.50
2017-11-23T20:07:54.722Z,4.62
2017-11-23T20:10:21.750Z,2.92
2017-11-23T20:12:48.101Z,2.42
2017-11-23T20:15:18.108Z,3.45
2017-11-23T20:17:45.159Z,2.85
2017-11-23T20:20:12.282Z,2.90
2017-11-23T20:22:38.669Z,2.42
2017-11-23T20:25:04.967Z,2.17
2017-11-23T20:27:31.323Z,2.97
2017-11-23T20:29:57.634Z,2.97
2017-11-23T20:32:28.445Z,2.70
2017-11-23T20:34:54.749Z,2.58
2017-11-23T20:37:21.945Z,2.30
2017-11-23T20:39:48.369Z,2.40
2017-11-23T20:42:15.525Z,2.10
2017-11-23T20:44:42.069Z,2.47
2017-11-23T20:47:08.456Z,2.60
2017-11-23T20:49:36.981Z,1.67
2017-11-23T20:52:03.301Z,2.35
2017-11-23T20:54:29.678Z,2.67
2017-11-23T20:56:56.035Z,1.77
2017-11-23T20:59:22.365Z,2.20
2017-11-23T21:01:48.709Z,1.80
2017-11-23T21:04:15.883Z,2.65
2017-11-23T21:06:42.946Z,2.20
2017-11-23T21:09:10.041Z,1.90
2017-11-23T21:11:36.352Z,2.60
2017-11-23T21:14:02.746Z,2.50
2017-11-23T21:16:29.815Z,2.17
2017-11-23T21:18:56.119Z,8.45
2017-11-23T21:21:23.171Z,9.95
2017-11-23T21:23:49.499Z,4.07
2017-11-23T21:26:19.934Z,2.45
2017-11-23T21:28:46.272Z,2.25
2017-11-23T21:31:12.606Z,2.40
2017-11-23T21:33:38.939Z,1.95
2017-11-23T21:36:05.369Z,2.03
2017-11-23T21:38:31.712Z,2.40
2017-11-23T21:40:58.049Z,2.20
2017-11-23T21:43:25.131Z,1.80
2017-11-23T21:45:51.438Z,1.77
2017-11-23T21:48:18.494Z,2.72
2017-11-23T21:50:45.546Z,3.85
2017-11-23T21:53:12.482Z,3.37
2017-11-23T21:55:38.736Z,2.70
2017-11-23T21:58:04.848Z,2.35
2017-11-23T22:00:30.979Z,1.87
2017-11-23T22:02:57.394Z,2.15
2017-11-23T22:05:23.737Z,2.53
2017-11-23T22:07:50.076Z,2.10
2017-11-23T22:10:16.500Z,2.10
2017-11-23T22:12:43.583Z,2.08
2017-11-23T22:15:09.892Z,2.92
2017-11-23T22:17:36.217Z,2.20
2017-11-23T22:20:02.618Z,1.90
2017-11-23T22:22:29.064Z,2.20
2017-11-23T22:24:55.421Z,2.87
2017-11-23T22:27:21.818Z,2.08
2017-11-23T22:29:49.005Z,1.80
2017-11-23T22:32:15.411Z,2.10
2017-11-23T22:34:42.525Z,1.83
2017-11-23T22:37:08.877Z,1.85
2017-11-23T22:39:35.183Z,1.83
2017-11-23T22:42:02.227Z,2.15
2017-11-23T22:44:30.673Z,1.80
2017-11-23T22:46:56.950Z,2.80
2017-11-23T22:49:23.089Z,2.62
2017-11-23T22:51:49.226Z,2.80
2017-11-23T22:54:16.091Z,2.33
2017-11-23T22:56:43.036Z,1.95
2017-11-23T22:59:10.482Z,2.28
2017-11-23T23:01:36.842Z,2.40
2017-11-23T23:04:03.917Z,2.17
2017-11-23T23:06:31.009Z,1.87
2017-11-23T23:08:57.166Z,1.98
2017-11-23T23:11:24.398Z,2.22
2017-11-23T23:13:50.625Z,1.90
2017-11-23T23:16:16.753Z,2.50
2017-11-23T23:18:43.088Z,2.15
2017-11-23T23:21:09.422Z,2.00
2017-11-23T23:23:35.869Z,2.20
2017-11-23T23:26:02.202Z,2.17
2017-11-23T23:28:28.525Z,1.80
2017-11-23T23:30:54.863Z,2.60
2017-11-23T23:33:21.267Z,2.25
2017-11-23T23:35:48.328Z,2.50
2017-11-23T23:38:15.418Z,2.20
2017-11-23T23:40:41.536Z,3.60
2017-11-23T23:43:08.460Z,2.20
2017-11-23T23:45:34.704Z,2.70
2017-11-23T23:48:00.870Z,1.95
2017-11-23T23:50:27.005Z,2.62
2017-11-23T23:52:54.068Z,2.47
2017-11-23T23:55:20.319Z,2.53
2017-11-23T23:57:46.483Z,2.30
